createdAt,value
2018-09-19T00:02:59.534Z,19.11
2018-09-19T00:07:03.197Z,19.09
2018-09-19T00:11:07.358Z,19.08
2018-09-19T00:15:10.876Z,19.04
2018-09-19T00:19:14.756Z,19.01
2018-09-19T00:23:18.379Z,18.98
2018-09-19T00:27:23.125Z,18.94
2018-09-19T00:31:26.827Z,18.90
2018-09-19T00:35:30.568Z,18.86
2018-09-19T00:39:34.355Z,18.83
2018-09-19T00:43:38.313Z,18.77
2018-09-19T00:47:42.223Z,18.74
2018-09-19T00:51:46.173Z,18.71
2018-09-19T00:55:50.071Z,18.69
2018-09-19T00:59:53.625Z,18.68
2018-09-19T01:03:57.398Z,18.65
2018-09-19T01:08:01.566Z,18.61
2018-09-19T01:12:05.127Z,18.58
2018-09-19T01:16:09.011Z,18.57
2018-09-19T01:20:12.590Z,18.50
2018-09-19T01:24:16.410Z,18.43
2018-09-19T01:28:19.970Z,18.38
2018-09-19T01:32:23.558Z,18.36
2018-09-19T01:36:27.146Z,18.33
2018-09-19T01:40:31.237Z,18.31
2018-09-19T01:44:34.774Z,18.27
2018-09-19T01:48:39.469Z,18.21
2018-09-19T01:52:43.026Z,18.22
2018-09-19T01:56:48.935Z,18.20
2018-09-19T02:00:52.652Z,18.18
2018-09-19T02:04:56.409Z,18.14
2018-09-19T02:09:00.062Z,18.09
2018-09-19T02:13:03.912Z,18.05
2018-09-19T02:17:07.888Z,18.05
2018-09-19T02:21:11.539Z,17.99
2018-09-19T02:25:15.857Z,17.97
2018-09-19T02:29:19.510Z,17.94
2018-09-19T02:33:23.160Z,17.92
2018-09-19T02:37:26.906Z,17.90
2018-09-19T02:41:30.706Z,17.87
2018-09-19T02:45:34.508Z,17.83
2018-09-19T02:49:38.307Z,17.80
2018-09-19T02:53:41.956Z,17.76
2018-09-19T02:57:45.825Z,17.70
2018-09-19T03:01:49.491Z,17.67
2018-09-19T03:05:53.217Z,17.65
2018-09-19T03:09:57.116Z,17.64
2018-09-19T03:14:00.619Z,17.63
2018-09-19T03:18:05.431Z,17.59
2018-09-19T03:22:09.078Z,17.57
2018-09-19T03:26:12.731Z,17.54
2018-09-19T03:30:16.302Z,17.50
2018-09-19T03:34:19.968Z,17.48
2018-09-19T03:42:51.539Z,17.38
2018-09-19T03:47:16.276Z,17.35
2018-09-19T03:51:20.622Z,17.35
2018-09-19T03:59:50.883Z,17.30
2018-09-19T04:03:54.919Z,17.30
2018-09-19T04:08:00.605Z,17.29
2018-09-19T04:12:05.178Z,17.28
2018-09-19T04:20:47.650Z,17.27
2018-09-19T04:24:51.167Z,17.24
2018-09-19T04:28:55.184Z,17.21
2018-09-19T04:37:24.970Z,17.13
2018-09-19T04:41:28.973Z,17.13
2018-09-19T04:45:34.628Z,17.10
2018-09-19T04:49:41.072Z,17.07
2018-09-19T04:53:47.365Z,17.06
2018-09-19T04:57:50.933Z,17.04
2018-09-19T05:01:54.474Z,17.02
2018-09-19T05:05:59.111Z,17.02
2018-09-19T05:10:03.766Z,16.99
2018-09-19T05:14:07.805Z,16.99
2018-09-19T05:18:12.018Z,16.96
2018-09-19T05:22:16.868Z,17.00
2018-09-19T05:26:21.408Z,17.02
2018-09-19T05:30:25.040Z,17.05
2018-09-19T05:34:29.734Z,17.10
2018-09-19T05:38:34.232Z,17.13
2018-09-19T05:42:37.773Z,17.17
2018-09-19T05:46:42.173Z,17.21
2018-09-19T05:50:46.256Z,17.25
2018-09-19T05:54:51.081Z,17.28
2018-09-19T05:58:54.721Z,17.35
2018-09-19T06:02:59.662Z,17.43
2018-09-19T06:07:04.236Z,17.51
2018-09-19T06:11:08.587Z,17.59
2018-09-19T06:15:13.584Z,17.66
2018-09-19T06:19:17.165Z,17.70
2018-09-19T06:23:21.144Z,17.77
2018-09-19T06:27:25.429Z,17.82
2018-09-19T06:31:29.392Z,17.85
2018-09-19T06:35:32.954Z,17.93
2018-09-19T06:39:36.564Z,18.00
2018-09-19T06:43:40.188Z,18.09
2018-09-19T06:47:43.770Z,18.17
2018-09-19T06:51:49.479Z,18.28
2018-09-19T06:55:53.165Z,18.36
2018-09-19T06:59:58.211Z,18.44
2018-09-19T07:04:02.520Z,18.55
2018-09-19T07:08:06.109Z,18.65
2018-09-19T07:12:09.648Z,18.78
2018-09-19T07:16:13.685Z,18.89
2018-09-19T07:20:17.244Z,19.03
2018-09-19T07:24:20.903Z,19.21
2018-09-19T07:28:24.933Z,19.43
2018-09-19T07:32:28.539Z,19.57
2018-09-19T07:36:32.636Z,19.77
2018-09-19T07:40:37.422Z,19.96
2018-09-19T07:44:41.647Z,20.08
2018-09-19T07:48:45.509Z,20.17
2018-09-19T07:52:49.039Z,20.27
2018-09-19T07:56:55.101Z,20.36
2018-09-19T08:00:58.947Z,20.46
2018-09-19T08:05:02.564Z,20.57
2018-09-19T08:09:09.614Z,20.71
2018-09-19T09:46:29.472Z,23.69
2018-09-19T09:59:24.576Z,23.96
2018-09-19T10:03:28.084Z,24.06
2018-09-19T10:07:31.605Z,24.24
2018-09-19T10:11:35.238Z,24.41
2018-09-19T10:15:38.887Z,24.49
2018-09-19T10:19:42.475Z,24.62
2018-09-19T10:23:45.985Z,24.75
2018-09-19T10:27:49.547Z,24.86
2018-09-19T10:31:53.291Z,24.96
2018-09-19T10:35:56.853Z,25.06
2018-09-19T10:40:00.517Z,25.15
2018-09-19T10:44:04.838Z,25.23
2018-09-19T10:48:10.030Z,25.30
2018-09-19T10:52:13.632Z,25.41
2018-09-19T10:56:17.276Z,25.55
2018-09-19T11:00:20.863Z,25.75
2018-09-19T11:04:26.244Z,25.73
2018-09-19T11:08:29.863Z,25.79
2018-09-19T11:12:33.431Z,25.89
2018-09-19T11:16:38.879Z,25.96
2018-09-19T11:20:43.504Z,26.03
2018-09-19T11:24:47.836Z,26.10
2018-09-19T11:28:51.497Z,26.24
2018-09-19T11:32:55.113Z,26.27
2018-09-19T11:36:58.765Z,26.33
2018-09-19T11:41:02.342Z,26.35
2018-09-19T11:45:06.644Z,26.35
2018-09-19T11:49:10.270Z,26.37
2018-09-19T11:53:18.981Z,26.47
2018-09-19T11:57:23.852Z,26.52
2018-09-19T12:01:27.390Z,26.47
2018-09-19T12:05:32.026Z,26.40
2018-09-19T12:09:35.682Z,26.22
2018-09-19T12:13:39.271Z,26.19
2018-09-19T12:17:42.963Z,26.20
2018-09-19T12:21:46.592Z,26.29
2018-09-19T12:25:50.821Z,26.43
2018-09-19T12:29:54.792Z,26.60
2018-09-19T12:33:58.496Z,26.70
2018-09-19T12:38:02.211Z,26.73
2018-09-19T12:42:06.847Z,26.76
2018-09-19T12:46:10.457Z,26.81
2018-09-19T12:50:13.979Z,26.85
2018-09-19T12:54:17.583Z,26.86
2018-09-19T12:58:21.354Z,26.75
2018-09-19T13:02:24.944Z,26.72
2018-09-19T13:06:28.613Z,26.84
2018-09-19T13:10:32.219Z,26.94
2018-09-19T13:14:35.827Z,27.01
2018-09-19T13:18:39.398Z,27.04
2018-09-19T13:22:43.010Z,27.10
2018-09-19T13:26:46.543Z,27.09
2018-09-19T13:30:50.205Z,27.09
2018-09-19T13:34:53.816Z,27.09
2018-09-19T13:38:57.358Z,27.02
2018-09-19T13:43:01.969Z,26.86
2018-09-19T13:47:05.846Z,26.80
2018-09-19T13:51:20.049Z,26.78
2018-09-19T13:55:24.424Z,26.74
2018-09-19T13:59:28.099Z,26.71
2018-09-19T14:03:31.793Z,26.70
2018-09-19T14:07:36.377Z,26.68
2018-09-19T14:11:41.477Z,26.63
2018-09-19T14:15:44.988Z,26.60
2018-09-19T14:19:48.574Z,26.60
2018-09-19T14:23:52.657Z,26.58
2018-09-19T14:27:57.793Z,26.59
2018-09-19T14:32:02.459Z,26.59
2018-09-19T14:36:06.092Z,26.54
2018-09-19T14:40:09.680Z,26.56
2018-09-19T14:44:13.224Z,26.62
2018-09-19T14:48:16.798Z,26.67
2018-09-19T14:52:20.342Z,26.70
2018-09-19T14:56:23.903Z,26.71
2018-09-19T15:00:27.432Z,26.71
2018-09-19T15:04:32.352Z,26.71
2018-09-19T15:08:35.977Z,26.72
2018-09-19T15:12:39.613Z,26.73
2018-09-19T15:16:43.158Z,26.75
2018-09-19T15:20:47.517Z,26.76
2018-09-19T15:24:51.101Z,26.77
2018-09-19T15:28:55.085Z,26.79
2018-09-19T15:32:58.705Z,26.75
2018-09-19T15:37:02.315Z,26.69
2018-09-19T15:41:05.938Z,26.63
2018-09-19T15:45:09.511Z,26.59
2018-09-19T15:49:13.217Z,26.55
2018-09-19T15:53:16.933Z,26.51
2018-09-19T15:57:20.546Z,26.48
2018-09-19T16:01:24.126Z,26.43
2018-09-19T16:05:27.675Z,26.41
2018-09-19T16:09:32.288Z,26.34
2018-09-19T16:13:37.207Z,26.30
2018-09-19T16:17:40.755Z,26.26
2018-09-19T16:21:44.336Z,26.23
2018-09-19T16:25:48.842Z,26.20
2018-09-19T16:29:53.387Z,26.20
2018-09-19T16:33:57.243Z,26.17
2018-09-19T16:38:01.510Z,26.15
2018-09-19T16:42:05.426Z,26.10
2018-09-19T16:46:09.005Z,26.04
2018-09-19T16:50:13.791Z,26.01
2018-09-19T16:54:17.414Z,25.99
2018-09-19T16:58:20.896Z,25.98
2018-09-19T17:02:25.519Z,25.94
2018-09-19T17:06:30.590Z,25.87
2018-09-19T17:10:34.569Z,25.80
2018-09-19T17:14:38.762Z,25.74
2018-09-19T17:18:42.293Z,25.68
2018-09-19T17:22:46.131Z,25.60
2018-09-19T17:26:50.606Z,25.54
2018-09-19T17:30:54.134Z,25.48
2018-09-19T17:34:59.584Z,25.40
2018-09-19T17:39:04.768Z,25.37
2018-09-19T17:43:08.373Z,25.32
2018-09-19T17:47:12.034Z,25.26
2018-09-19T17:51:16.861Z,25.19
2018-09-19T17:55:20.486Z,25.08
2018-09-19T17:59:25.286Z,25.00
2018-09-19T18:03:28.835Z,24.96
2018-09-19T18:07:32.446Z,24.90
2018-09-19T18:11:36.115Z,24.84
2018-09-19T18:15:40.143Z,24.78
2018-09-19T18:19:44.719Z,24.73
2018-09-19T18:23:50.797Z,24.64
2018-09-19T18:27:54.991Z,24.54
2018-09-19T18:31:58.582Z,24.48
2018-09-19T18:36:03.021Z,24.41
2018-09-19T18:40:07.243Z,24.36
2018-09-19T18:44:11.819Z,24.28
2018-09-19T18:48:15.770Z,24.20
2018-09-19T18:52:20.058Z,24.14
2018-09-19T18:56:24.867Z,24.04
2018-09-19T19:00:29.536Z,23.91
2018-09-19T19:04:33.052Z,23.79
2018-09-19T19:08:37.511Z,23.74
2018-09-19T19:12:41.602Z,23.72
2018-09-19T19:16:45.744Z,23.72
2018-09-19T19:20:49.799Z,23.63
2018-09-19T19:24:53.832Z,23.52
2018-09-19T19:28:57.300Z,23.44
2018-09-19T19:33:00.896Z,23.41
2018-09-19T19:37:06.090Z,23.39
2018-09-19T19:41:11.421Z,23.37
2018-09-19T19:45:14.907Z,23.33
2018-09-19T19:49:19.689Z,23.26
2018-09-19T19:53:23.943Z,23.16
2018-09-19T19:57:27.490Z,23.11
2018-09-19T20:01:32.555Z,23.06
2018-09-19T20:05:40.276Z,22.99
2018-09-19T20:09:45.237Z,22.91
2018-09-19T20:13:51.022Z,22.86
2018-09-19T20:17:54.584Z,22.82
2018-09-19T20:21:59.177Z,22.77
2018-09-19T20:26:06.656Z,22.71
2018-09-19T20:30:11.865Z,22.64
2018-09-19T20:34:16.995Z,22.56
2018-09-19T20:38:21.548Z,22.51
2018-09-19T20:42:26.168Z,22.47
2018-09-19T20:50:57.655Z,22.37
2018-09-19T20:55:01.372Z,22.30
2018-09-19T20:59:04.983Z,22.24
2018-09-19T21:03:08.702Z,22.17
2018-09-19T21:07:12.334Z,22.12
2018-09-19T21:11:16.123Z,22.07
2018-09-19T21:15:19.757Z,22.01
2018-09-19T21:19:23.369Z,21.96
2018-09-19T21:23:27.067Z,21.93
2018-09-19T21:27:30.677Z,21.90
2018-09-19T21:31:34.656Z,21.87
2018-09-19T21:35:38.243Z,21.84
2018-09-19T21:39:41.754Z,21.78
2018-09-19T21:43:45.529Z,21.73
2018-09-19T21:47:49.101Z,21.70
2018-09-19T21:51:52.730Z,21.60
2018-09-19T21:55:56.298Z,21.52
2018-09-19T22:00:00.136Z,21.48
2018-09-19T22:04:03.915Z,21.46
2018-09-19T22:08:07.614Z,21.44
2018-09-19T22:12:11.994Z,21.40
2018-09-19T22:16:15.506Z,21.36
2018-09-19T22:20:19.386Z,21.32
2018-09-19T22:24:22.879Z,21.31
2018-09-19T22:28:26.565Z,21.28
2018-09-19T22:32:30.148Z,21.24
2018-09-19T22:36:33.710Z,21.22
2018-09-19T22:40:37.205Z,21.19
2018-09-19T22:44:40.753Z,21.15
2018-09-19T22:48:44.412Z,21.11
2018-09-19T22:52:47.958Z,21.06
2018-09-19T22:56:51.601Z,21.00
2018-09-19T23:00:56.196Z,20.91
2018-09-19T23:04:59.917Z,20.84
2018-09-19T23:09:03.606Z,20.78
2018-09-19T23:13:07.525Z,20.78
2018-09-19T23:17:11.182Z,20.74
2018-09-19T23:21:14.853Z,20.68
2018-09-19T23:25:18.621Z,20.62
2018-09-19T23:29:22.222Z,20.58
2018-09-19T23:33:25.850Z,20.56
2018-09-19T23:37:29.393Z,20.53
2018-09-19T23:41:32.916Z,20.49
2018-09-19T23:45:37.712Z,20.41
2018-09-19T23:49:41.541Z,20.40
2018-09-19T23:53:45.332Z,20.37
2018-09-19T23:57:48.946Z,20.36
